Time;durP1;ratioP1;P1;durP2;ratioP2;P2;SDS_P1;SDS_P2;PMS_P1;PMS_P2;Temp;Humidity;BMP_temperature;BMP_pressure;BME280_temperature;BME280_humidity;BME280_pressure;Samples;Min_cycle;Max_cycle;Signal;HPM_P1;HPM_P2
2023/02/23 00:00:21;;;;;;;;;;;18.20;52.80;;;;;;10121503;28;845;-80
2023/02/23 00:05:16;;;;;;;;;;;18.20;52.70;;;;;;10120166;28;881;-79
2023/02/23 00:10:11;;;;;;;;;;;18.20;52.70;;;;;;10121363;28;994;-80
2023/02/23 00:15:07;;;;;;;;;;;18.20;52.70;;;;;;10121277;28;1934;-80
2023/02/23 00:20:06;;;;;;;;;;;18.10;52.60;;;;;;10121019;28;906;-80
2023/02/23 00:25:06;;;;;;;;;;;18.10;52.70;;;;;;10120862;28;830;-80
2023/02/23 00:30:02;;;;;;;;;;;18.10;52.60;;;;;;10120641;28;889;-80
2023/02/23 00:34:57;;;;;;;;;;;18.10;52.60;;;;;;10120813;28;1911;-79
2023/02/23 00:39:52;;;;;;;;;;;18.10;52.60;;;;;;10120194;28;806;-80
2023/02/23 00:44:48;;;;;;;;;;;18.10;52.60;;;;;;10120439;28;1261;-80
2023/02/23 00:49:43;;;;;;;;;;;18.10;52.60;;;;;;10119526;28;977;-81
2023/02/23 00:54:39;;;;;;;;;;;18.10;52.60;;;;;;10119624;28;1972;-80
2023/02/23 00:59:34;;;;;;;;;;;18.10;52.60;;;;;;10120650;28;935;-80
2023/02/23 01:04:30;;;;;;;;;;;18.10;52.50;;;;;;10119814;28;857;-80
2023/02/23 01:09:28;;;;;;;;;;;18.10;52.50;;;;;;10119512;28;893;-80
2023/02/23 01:14:23;;;;;;;;;;;18.10;52.50;;;;;;10119045;28;1965;-80
2023/02/23 01:19:19;;;;;;;;;;;18.10;52.50;;;;;;10119119;28;863;-80
2023/02/23 01:24:14;;;;;;;;;;;18.10;52.50;;;;;;10119117;28;952;-80
2023/02/23 01:29:09;;;;;;;;;;;18.10;52.60;;;;;;10119564;28;883;-80
2023/02/23 01:34:05;;;;;;;;;;;18.10;52.60;;;;;;10118775;28;1970;-78
2023/02/23 01:39:00;;;;;;;;;;;18.10;52.50;;;;;;10119922;28;864;-81
2023/02/23 01:43:55;;;;;;;;;;;18.10;52.50;;;;;;10118599;28;1361;-80
2023/02/23 01:48:51;;;;;;;;;;;18.10;52.50;;;;;;10118491;28;821;-80
2023/02/23 01:53:46;;;;;;;;;;;18.10;52.50;;;;;;10119270;28;868;-81
2023/02/23 01:58:42;;;;;;;;;;;18.10;52.50;;;;;;10117577;28;1902;-80
2023/02/23 02:03:37;;;;;;;;;;;18.10;52.50;;;;;;10118051;28;985;-80
2023/02/23 02:08:33;;;;;;;;;;;18.10;52.50;;;;;;10117369;28;765;-80
2023/02/23 02:13:28;;;;;;;;;;;18.10;52.50;;;;;;10117844;28;842;-80
2023/02/23 02:18:24;;;;;;;;;;;18.10;52.50;;;;;;10117720;28;1957;-80
2023/02/23 02:23:19;;;;;;;;;;;18.10;52.50;;;;;;10118223;28;860;-79
2023/02/23 02:28:16;;;;;;;;;;;18.10;52.60;;;;;;10123929;28;916;-80
2023/02/23 02:33:12;;;;;;;;;;;18.10;52.50;;;;;;10125001;28;829;-80
2023/02/23 02:38:09;;;;;;;;;;;18.10;52.50;;;;;;10124360;28;1968;-80
2023/02/23 02:43:10;;;;;;;;;;;18.10;52.40;;;;;;10124636;28;1296;-79
2023/02/23 02:48:05;;;;;;;;;;;18.10;52.50;;;;;;10123739;28;825;-78
2023/02/23 02:53:00;;;;;;;;;;;18.10;52.50;;;;;;10123699;28;925;-80
2023/02/23 02:57:56;;;;;;;;;;;18.10;52.50;;;;;;10123933;28;1961;-81
2023/02/23 04:21:04;;;;;;;;;;;18.00;52.50;;;;;;10121485;28;975;-79
2023/02/23 04:26:00;;;;;;;;;;;18.00;52.40;;;;;;10120803;28;775;-80
2023/02/23 04:30:55;;;;;;;;;;;18.00;52.40;;;;;;10119874;28;858;-79
2023/02/23 04:35:50;;;;;;;;;;;18.00;52.40;;;;;;10119850;28;1907;-80
2023/02/23 04:40:46;;;;;;;;;;;18.00;52.40;;;;;;10119901;28;1229;-80
2023/02/23 04:45:41;;;;;;;;;;;18.00;52.50;;;;;;10121451;28;877;-80
2023/02/23 04:50:37;;;;;;;;;;;18.00;52.50;;;;;;10120234;28;802;-80
2023/02/23 04:55:32;;;;;;;;;;;18.00;52.40;;;;;;10119805;28;1910;-80
2023/02/23 05:00:32;;;;;;;;;;;18.00;52.40;;;;;;10120727;28;774;-80
2023/02/23 05:05:28;;;;;;;;;;;18.00;52.40;;;;;;10081387;28;1037;-80
2023/02/23 05:10:23;;;;;;;;;;;18.00;52.40;;;;;;10080320;28;801;-80
2023/02/23 05:15:18;;;;;;;;;;;18.00;52.40;;;;;;10080550;28;1906;-80
2023/02/23 05:20:14;;;;;;;;;;;18.00;52.40;;;;;;10079457;28;891;-80
2023/02/23 05:25:10;;;;;;;;;;;18.00;52.30;;;;;;10080105;28;869;-80
2023/02/23 05:30:06;;;;;;;;;;;18.00;52.30;;;;;;10079769;28;823;-80
2023/02/23 05:35:01;;;;;;;;;;;18.10;52.30;;;;;;10079482;28;1960;-80
2023/02/23 05:39:57;;;;;;;;;;;18.10;52.30;;;;;;10079546;28;985;-75
2023/02/23 05:44:52;;;;;;;;;;;18.10;52.20;;;;;;10079231;28;1502;-74
2023/02/23 05:49:48;;;;;;;;;;;18.10;52.20;;;;;;10079851;28;850;-76
2023/02/23 05:54:44;;;;;;;;;;;18.10;52.20;;;;;;10078556;28;1982;-83
2023/02/23 05:59:40;;;;;;;;;;;18.10;52.20;;;;;;10080481;28;774;-81
2023/02/23 06:04:35;;;;;;;;;;;18.10;52.20;;;;;;10085809;28;949;-81
2023/02/23 06:09:30;;;;;;;;;;;18.10;52.20;;;;;;10085757;28;905;-80
2023/02/23 06:14:26;;;;;;;;;;;18.20;52.20;;;;;;10085503;28;1898;-80
2023/02/23 06:19:21;;;;;;;;;;;18.20;52.10;;;;;;10085447;28;779;-78
2023/02/23 06:24:18;;;;;;;;;;;18.10;52.10;;;;;;10085265;28;884;-82
2023/02/23 06:29:13;;;;;;;;;;;18.10;52.10;;;;;;10085080;28;894;-83
2023/02/23 06:34:09;;;;;;;;;;;18.20;52.20;;;;;;10084929;28;1903;-79
2023/02/23 06:39:04;;;;;;;;;;;18.20;52.20;;;;;;10085369;28;941;-82
2023/02/23 06:43:59;;;;;;;;;;;18.20;52.10;;;;;;10085650;28;1409;-82
2023/02/23 06:48:55;;;;;;;;;;;18.20;52.10;;;;;;10084592;28;889;-80
2023/02/23 06:53:52;;;;;;;;;;;18.10;52.10;;;;;;10084223;28;900;-77
2023/02/23 06:58:47;;;;;;;;;;;18.20;52.10;;;;;;10083839;28;1911;-81
2023/02/23 07:03:42;;;;;;;;;;;18.10;52.10;;;;;;10084657;28;867;-80
2023/02/23 07:08:38;;;;;;;;;;;18.20;52.10;;;;;;10084602;28;889;-80
2023/02/23 07:13:33;;;;;;;;;;;18.20;52.10;;;;;;10084081;28;884;-80
2023/02/23 07:18:29;;;;;;;;;;;18.10;52.10;;;;;;10084489;28;1910;-80
2023/02/23 07:23:24;;;;;;;;;;;18.20;52.10;;;;;;10084096;28;799;-80
2023/02/23 07:28:20;;;;;;;;;;;18.20;52.00;;;;;;10082997;28;901;-82
2023/02/23 07:33:15;;;;;;;;;;;18.20;52.00;;;;;;10082957;28;882;-82
2023/02/23 07:38:12;;;;;;;;;;;18.10;52.00;;;;;;10082970;28;1940;-80
2023/02/23 07:43:07;;;;;;;;;;;18.20;52.70;;;;;;10082740;28;1078;-82
2023/02/23 07:48:03;;;;;;;;;;;18.20;52.00;;;;;;10080282;28;1052;-78
2023/02/23 07:52:58;;;;;;;;;;;18.20;52.00;;;;;;10080019;28;1205;-83
2023/02/23 07:57:54;;;;;;;;;;;18.10;52.00;;;;;;10082353;28;1903;-83
2023/02/23 08:02:49;;;;;;;;;;;18.10;52.10;;;;;;10081991;28;825;-76
2023/02/23 08:07:44;;;;;;;;;;;18.10;52.10;;;;;;10082643;28;898;-76
2023/02/23 08:12:40;;;;;;;;;;;18.10;52.10;;;;;;10081979;28;940;-74
2023/02/23 08:17:35;;;;;;;;;;;18.10;52.10;;;;;;10082667;28;1958;-76
2023/02/23 08:22:31;;;;;;;;;;;18.20;52.10;;;;;;10080793;28;896;-76
2023/02/23 08:27:26;;;;;;;;;;;18.20;52.10;;;;;;10082140;28;915;-76
2023/02/23 08:32:21;;;;;;;;;;;18.10;52.00;;;;;;10081891;28;816;-77
2023/02/23 08:37:17;;;;;;;;;;;18.10;52.00;;;;;;10081169;28;1906;-78
2023/02/23 08:42:13;;;;;;;;;;;18.10;52.00;;;;;;10081250;28;1263;-78
2023/02/23 08:47:08;;;;;;;;;;;18.10;52.10;;;;;;10081828;28;893;-77
2023/02/23 08:52:04;;;;;;;;;;;18.10;52.00;;;;;;10080344;28;862;-79
2023/02/23 08:56:59;;;;;;;;;;;18.20;52.10;;;;;;10081226;28;1986;-85
2023/02/23 09:01:54;;;;;;;;;;;18.20;52.10;;;;;;10080068;28;898;-78
2023/02/23 09:06:50;;;;;;;;;;;18.20;52.20;;;;;;10080454;28;760;-83
2023/02/23 09:11:45;;;;;;;;;;;18.20;52.20;;;;;;10080102;28;878;-77
2023/02/23 09:16:42;;;;;;;;;;;18.10;52.20;;;;;;10080582;28;1903;-80
2023/02/23 09:21:37;;;;;;;;;;;18.10;52.10;;;;;;10080003;28;822;-81
2023/02/23 09:26:33;;;;;;;;;;;18.20;52.20;;;;;;10110265;28;1091;-82
2023/02/23 09:31:29;;;;;;;;;;;18.30;52.50;;;;;;10114463;28;1090;-77
2023/02/23 09:36:24;;;;;;;;;;;18.40;52.90;;;;;;10114295;28;1914;-81
2023/02/23 09:41:19;;;;;;;;;;;18.40;52.90;;;;;;10117959;28;1093;-82
2023/02/23 09:46:15;;;;;;;;;;;18.50;53.20;;;;;;10115656;28;1043;-82
2023/02/23 09:51:10;;;;;;;;;;;18.50;53.40;;;;;;10117658;28;972;-82
2023/02/23 09:56:05;;;;;;;;;;;18.50;53.70;;;;;;10117189;28;1902;-81
2023/02/23 10:01:01;;;;;;;;;;;18.50;53.50;;;;;;10116420;28;1066;-81
2023/02/23 10:05:56;;;;;;;;;;;18.60;53.60;;;;;;10115320;28;979;-83
2023/02/23 10:10:51;;;;;;;;;;;18.60;53.80;;;;;;10116864;28;885;-80
2023/02/23 10:15:47;;;;;;;;;;;18.60;53.80;;;;;;10114833;28;1895;-81
2023/02/23 10:20:42;;;;;;;;;;;18.60;53.60;;;;;;10117887;28;802;-81
2023/02/23 10:25:38;;;;;;;;;;;18.60;53.90;;;;;;10117222;28;932;-82
2023/02/23 10:30:33;;;;;;;;;;;18.60;54.10;;;;;;10116903;28;1019;-78
2023/02/23 10:35:28;;;;;;;;;;;18.60;53.90;;;;;;10116586;28;1906;-81
2023/02/23 10:40:24;;;;;;;;;;;18.60;53.90;;;;;;10116996;28;919;-86
2023/02/23 10:45:22;;;;;;;;;;;18.60;54.00;;;;;;10116644;28;1287;-82
2023/02/23 10:50:17;;;;;;;;;;;18.40;54.00;;;;;;10123698;28;865;-87
2023/02/23 10:55:12;;;;;;;;;;;18.30;53.90;;;;;;10123083;28;1966;-87
2023/02/23 11:00:08;;;;;;;;;;;18.30;53.80;;;;;;10123764;28;895;-86
2023/02/23 11:05:03;;;;;;;;;;;18.30;53.70;;;;;;10123514;28;886;-86
2023/02/23 11:09:58;;;;;;;;;;;18.30;53.60;;;;;;10123003;28;826;-78
2023/02/23 11:14:54;;;;;;;;;;;18.30;53.60;;;;;;10123184;28;1898;-79
2023/02/23 11:19:49;;;;;;;;;;;18.30;53.50;;;;;;10117850;28;1177;-78
2023/02/23 11:24:44;;;;;;;;;;;18.30;53.50;;;;;;10120518;28;1055;-80
2023/02/23 11:29:40;;;;;;;;;;;18.30;53.40;;;;;;10122859;28;825;-79
2023/02/23 11:34:39;;;;;;;;;;;18.30;53.50;;;;;;10122421;28;1871;-83
2023/02/23 11:39:37;;;;;;;;;;;18.30;53.20;;;;;;10122946;28;889;-82
2023/02/23 11:44:32;;;;;;;;;;;18.30;52.90;;;;;;10121187;28;1310;-81
2023/02/23 11:49:28;;;;;;;;;;;18.30;52.80;;;;;;10122371;28;857;-76
2023/02/23 11:54:23;;;;;;;;;;;18.20;52.90;;;;;;10121013;28;1910;-77
2023/02/23 11:59:19;;;;;;;;;;;18.30;53.00;;;;;;10120418;28;1708;-77
2023/02/23 12:04:14;;;;;;;;;;;18.30;53.00;;;;;;10119200;28;1078;-84
2023/02/23 12:09:11;;;;;;;;;;;18.20;52.90;;;;;;10098693;28;1147;-87
2023/02/23 12:14:07;;;;;;;;;;;18.20;52.80;;;;;;10080317;28;1105;-87
2023/02/23 12:19:02;;;;;;;;;;;18.20;52.80;;;;;;10081459;28;1969;-86
2023/02/23 12:23:58;;;;;;;;;;;18.20;52.80;;;;;;10081607;28;857;-84
2023/02/23 12:28:53;;;;;;;;;;;18.20;52.80;;;;;;10081252;28;957;-76
2023/02/23 12:33:49;;;;;;;;;;;18.20;52.70;;;;;;10081200;28;826;-75
2023/02/23 12:38:44;;;;;;;;;;;18.20;52.40;;;;;;10081672;28;1902;-75
2023/02/23 12:43:40;;;;;;;;;;;18.20;52.30;;;;;;10080026;28;1298;-74
2023/02/23 12:48:35;;;;;;;;;;;18.20;52.40;;;;;;10081449;28;925;-75
2023/02/23 12:53:30;;;;;;;;;;;18.20;52.50;;;;;;10080513;28;821;-74
2023/02/23 12:58:27;;;;;;;;;;;18.10;52.50;;;;;;10083340;28;1979;-74
2023/02/23 13:03:22;;;;;;;;;;;18.10;52.70;;;;;;10119641;28;942;-74
2023/02/23 13:08:20;;;;;;;;;;;18.00;52.70;;;;;;10118944;28;940;-74
2023/02/23 13:13:16;;;;;;;;;;;18.00;52.60;;;;;;10119251;28;877;-74
2023/02/23 13:18:12;;;;;;;;;;;18.00;52.50;;;;;;10119631;28;1911;-74
2023/02/23 13:23:08;;;;;;;;;;;18.00;52.40;;;;;;10120153;28;845;-73
2023/02/23 13:28:03;;;;;;;;;;;18.00;52.50;;;;;;10119458;28;820;-74
2023/02/23 13:33:01;;;;;;;;;;;18.00;52.50;;;;;;10118917;28;872;-74
2023/02/23 13:37:56;;;;;;;;;;;18.00;52.30;;;;;;10118537;28;1915;-74
2023/02/23 13:42:52;;;;;;;;;;;18.00;52.30;;;;;;10118718;28;1271;-75
2023/02/23 13:47:48;;;;;;;;;;;17.90;52.50;;;;;;10118992;28;775;-74
2023/02/23 13:52:43;;;;;;;;;;;17.80;52.70;;;;;;10118382;28;873;-74
2023/02/23 13:57:39;;;;;;;;;;;17.80;52.70;;;;;;10118683;28;1922;-75
2023/02/23 14:02:34;;;;;;;;;;;17.70;52.70;;;;;;10104314;28;1139;-74
2023/02/23 14:07:30;;;;;;;;;;;17.70;52.90;;;;;;10078561;28;759;-74
2023/02/23 14:12:25;;;;;;;;;;;17.60;52.90;;;;;;10096273;28;1072;-73
2023/02/23 14:17:20;;;;;;;;;;;17.60;52.90;;;;;;10117945;28;1910;-73
2023/02/23 14:22:17;;;;;;;;;;;17.60;52.90;;;;;;10120680;28;886;-73
2023/02/23 14:27:12;;;;;;;;;;;17.50;52.90;;;;;;10099460;28;1860;-73
2023/02/23 14:32:08;;;;;;;;;;;17.50;52.90;;;;;;10084945;28;785;-74
2023/02/23 14:37:05;;;;;;;;;;;17.50;53.00;;;;;;10084237;28;1918;-74
2023/02/23 14:42:00;;;;;;;;;;;17.50;53.00;;;;;;10083992;28;1137;-74
2023/02/23 14:46:55;;;;;;;;;;;17.40;53.00;;;;;;10085075;28;792;-74
2023/02/23 14:51:51;;;;;;;;;;;17.40;53.00;;;;;;10084287;28;874;-74
2023/02/23 14:56:46;;;;;;;;;;;17.40;53.10;;;;;;10084596;28;1911;-74
2023/02/23 15:01:42;;;;;;;;;;;17.40;53.20;;;;;;10084134;28;886;-74
2023/02/23 15:06:39;;;;;;;;;;;17.30;53.00;;;;;;10084138;28;1071;-75
2023/02/23 15:11:36;;;;;;;;;;;17.30;53.10;;;;;;10083962;28;941;-75
2023/02/23 15:16:31;;;;;;;;;;;17.30;53.10;;;;;;10083781;28;1911;-74
2023/02/23 15:21:27;;;;;;;;;;;17.30;53.10;;;;;;10083758;28;883;-74
2023/02/23 15:26:22;;;;;;;;;;;17.20;53.10;;;;;;10083657;28;842;-75
2023/02/23 15:31:17;;;;;;;;;;;17.20;53.10;;;;;;10083201;28;991;-73
2023/02/23 15:36:13;;;;;;;;;;;17.20;53.10;;;;;;10106042;28;1899;-78
2023/02/23 15:41:08;;;;;;;;;;;17.20;53.10;;;;;;10122258;28;1168;-71
2023/02/23 15:46:04;;;;;;;;;;;17.20;53.20;;;;;;10122355;28;960;-75
2023/02/23 15:50:59;;;;;;;;;;;17.20;53.20;;;;;;10122527;28;766;-74
2023/02/23 15:55:54;;;;;;;;;;;17.20;53.10;;;;;;10121408;28;1903;-74
2023/02/23 16:00:50;;;;;;;;;;;17.20;53.00;;;;;;10122245;28;789;-74
2023/02/23 16:05:45;;;;;;;;;;;17.30;52.90;;;;;;10121423;28;818;-74
2023/02/23 16:10:40;;;;;;;;;;;17.20;52.90;;;;;;10121385;28;806;-75
2023/02/23 16:15:36;;;;;;;;;;;17.20;52.90;;;;;;10121567;28;1894;-74
2023/02/23 16:20:33;;;;;;;;;;;17.20;52.90;;;;;;10121818;28;863;-74
2023/02/23 16:25:28;;;;;;;;;;;17.20;52.90;;;;;;10120710;28;952;-73
2023/02/23 16:30:24;;;;;;;;;;;17.30;53.30;;;;;;10121177;28;911;-74
2023/02/23 16:35:19;;;;;;;;;;;17.40;52.50;;;;;;10119967;28;1895;-74
2023/02/23 16:40:15;;;;;;;;;;;17.40;52.50;;;;;;10120729;28;898;-74
2023/02/23 16:45:10;;;;;;;;;;;17.40;52.50;;;;;;10118892;28;1489;-74
2023/02/23 16:50:06;;;;;;;;;;;17.50;52.50;;;;;;10120409;28;782;-75
2023/02/23 16:55:03;;;;;;;;;;;17.50;52.50;;;;;;10075729;28;1980;-76
2023/02/23 16:59:59;;;;;;;;;;;17.50;52.40;;;;;;10079547;28;863;-77
2023/02/23 17:04:57;;;;;;;;;;;17.60;52.40;;;;;;10079888;28;755;-74
2023/02/23 17:09:53;;;;;;;;;;;17.60;52.30;;;;;;10079981;28;909;-74
2023/02/23 17:14:48;;;;;;;;;;;17.60;52.30;;;;;;10079920;28;1903;-74
2023/02/23 17:19:44;;;;;;;;;;;17.60;52.30;;;;;;10080415;28;795;-74
2023/02/23 17:24:39;;;;;;;;;;;17.60;52.30;;;;;;10080284;28;827;-75
2023/02/23 17:29:35;;;;;;;;;;;17.60;52.30;;;;;;10079553;28;963;-75
2023/02/23 17:34:30;;;;;;;;;;;17.60;52.30;;;;;;10079359;28;1902;-74
2023/02/23 17:39:26;;;;;;;;;;;17.60;52.30;;;;;;10079346;28;776;-75
2023/02/23 17:44:22;;;;;;;;;;;17.60;52.20;;;;;;10080001;28;1386;-75
2023/02/23 17:49:20;;;;;;;;;;;17.60;52.10;;;;;;10079238;28;794;-73
2023/02/23 17:54:15;;;;;;;;;;;17.60;52.20;;;;;;10079939;28;893;-73
2023/02/23 17:59:10;;;;;;;;;;;17.60;52.20;;;;;;10085815;28;1911;-74
2023/02/23 18:04:06;;;;;;;;;;;17.60;52.10;;;;;;10086456;28;853;-77
2023/02/23 18:09:04;;;;;;;;;;;17.60;52.20;;;;;;10085649;28;1017;-75
2023/02/23 18:14:00;;;;;;;;;;;17.60;52.20;;;;;;10085414;28;949;-75
2023/02/23 18:18:56;;;;;;;;;;;17.60;52.20;;;;;;10085451;28;1911;-75
2023/02/23 18:23:52;;;;;;;;;;;17.60;52.20;;;;;;10085187;28;814;-75
2023/02/23 18:28:47;;;;;;;;;;;17.70;52.10;;;;;;10085001;28;865;-75
2023/02/23 18:33:43;;;;;;;;;;;17.70;52.10;;;;;;10084772;28;1544;-75
2023/02/23 18:38:39;;;;;;;;;;;17.70;52.10;;;;;;10084474;28;1966;-74
2023/02/23 18:43:34;;;;;;;;;;;17.70;52.10;;;;;;10083829;28;1357;-74
2023/02/23 18:48:29;;;;;;;;;;;17.70;52.10;;;;;;10084543;28;1016;-75
2023/02/23 18:53:25;;;;;;;;;;;17.70;52.00;;;;;;10084254;28;826;-75
2023/02/23 18:58:20;;;;;;;;;;;17.70;52.00;;;;;;10082952;28;1984;-75
2023/02/23 19:03:16;;;;;;;;;;;17.70;52.00;;;;;;10083511;28;927;-75
2023/02/23 19:08:15;;;;;;;;;;;17.70;52.10;;;;;;10083335;28;867;-75
2023/02/23 19:13:10;;;;;;;;;;;17.70;52.00;;;;;;10084267;28;981;-74
2023/02/23 19:18:06;;;;;;;;;;;17.80;52.00;;;;;;10083696;28;1970;-72
2023/02/23 19:23:04;;;;;;;;;;;17.70;52.00;;;;;;10084230;28;865;-77
2023/02/23 19:27:59;;;;;;;;;;;17.90;52.50;;;;;;10082926;28;857;-71
2023/02/23 19:32:55;;;;;;;;;;;17.80;52.40;;;;;;10083320;28;790;-71
2023/02/23 19:37:50;;;;;;;;;;;18.00;53.30;;;;;;10082641;28;1907;-71
2023/02/23 19:42:45;;;;;;;;;;;18.10;53.70;;;;;;10083577;28;1259;-70
2023/02/23 19:47:41;;;;;;;;;;;18.10;53.90;;;;;;10083604;28;786;-70
2023/02/23 19:52:37;;;;;;;;;;;18.10;54.00;;;;;;10083538;28;893;-73
2023/02/23 19:57:33;;;;;;;;;;;18.10;53.90;;;;;;10083076;28;1973;-71
2023/02/23 20:02:28;;;;;;;;;;;18.10;53.90;;;;;;10082199;28;798;-76
2023/02/23 20:07:24;;;;;;;;;;;18.20;53.90;;;;;;10081813;28;916;-76
2023/02/23 20:12:19;;;;;;;;;;;18.00;54.00;;;;;;10082112;28;878;-74
2023/02/23 20:17:15;;;;;;;;;;;18.00;54.00;;;;;;10081666;28;1910;-75
2023/02/23 20:22:10;;;;;;;;;;;17.90;53.80;;;;;;10080468;28;963;-75
2023/02/23 20:27:05;;;;;;;;;;;17.90;53.60;;;;;;10081110;28;913;-75
2023/02/23 20:32:01;;;;;;;;;;;17.90;53.50;;;;;;10081589;28;870;-73
2023/02/23 20:36:56;;;;;;;;;;;18.00;53.40;;;;;;10082267;28;1910;-76
2023/02/23 20:41:55;;;;;;;;;;;17.90;53.30;;;;;;10081328;28;1173;-75
2023/02/23 20:46:50;;;;;;;;;;;17.90;53.20;;;;;;10081557;28;924;-75
2023/02/23 20:51:45;;;;;;;;;;;17.90;53.40;;;;;;10081495;28;905;-74
2023/02/23 20:56:41;;;;;;;;;;;17.90;53.20;;;;;;10080780;28;1898;-75
2023/02/23 21:01:36;;;;;;;;;;;17.80;53.20;;;;;;10080136;28;913;-76
2023/02/23 21:06:31;;;;;;;;;;;17.80;53.10;;;;;;10080739;28;889;-76
2023/02/23 21:11:27;;;;;;;;;;;17.80;53.20;;;;;;10080959;28;826;-76
2023/02/23 21:16:22;;;;;;;;;;;17.80;53.10;;;;;;10081249;28;1902;-76
2023/02/23 21:21:18;;;;;;;;;;;17.80;53.00;;;;;;10080881;28;865;-76
2023/02/23 21:26:13;;;;;;;;;;;17.80;53.10;;;;;;10080467;28;902;-76
2023/02/23 21:31:09;;;;;;;;;;;17.80;53.00;;;;;;10080132;28;1023;-76
2023/02/23 21:36:07;;;;;;;;;;;17.80;52.90;;;;;;10079568;28;1963;-76
2023/02/23 21:41:02;;;;;;;;;;;17.80;52.90;;;;;;10079319;28;1184;-76
2023/02/23 21:45:57;;;;;;;;;;;17.80;52.90;;;;;;10080189;28;833;-76
2023/02/23 21:50:53;;;;;;;;;;;17.70;52.80;;;;;;10079403;28;793;-76
2023/02/23 21:55:48;;;;;;;;;;;17.70;52.80;;;;;;10079154;28;1915;-76
2023/02/23 22:00:44;;;;;;;;;;;17.70;53.30;;;;;;10079231;28;817;-76
2023/02/23 22:05:40;;;;;;;;;;;17.80;52.70;;;;;;10079585;28;837;-76
2023/02/23 22:10:35;;;;;;;;;;;17.80;52.70;;;;;;10078996;28;849;-77
2023/02/23 22:15:32;;;;;;;;;;;17.80;52.70;;;;;;10079266;28;1969;-79
2023/02/23 22:20:27;;;;;;;;;;;17.70;52.60;;;;;;10079296;28;877;-79
2023/02/23 22:25:24;;;;;;;;;;;17.70;52.60;;;;;;10078386;28;902;-79
2023/02/23 22:30:21;;;;;;;;;;;17.70;52.70;;;;;;10078489;28;790;-79
2023/02/23 22:35:16;;;;;;;;;;;17.70;52.70;;;;;;10078301;28;1906;-79
2023/02/23 22:40:15;;;;;;;;;;;17.70;52.70;;;;;;10078589;28;917;-79
2023/02/23 22:45:10;;;;;;;;;;;17.70;52.70;;;;;;10084897;28;1113;-78
2023/02/23 22:50:06;;;;;;;;;;;17.70;52.60;;;;;;10084635;28;857;-78
2023/02/23 22:55:02;;;;;;;;;;;17.70;52.70;;;;;;10083708;28;1911;-77
2023/02/23 23:00:09;;;;;;;;;;;17.70;52.70;;;;;;10084971;28;984;-74
2023/02/23 23:05:04;;;;;;;;;;;17.70;52.60;;;;;;10084215;28;1659;-74
2023/02/23 23:10:04;;;;;;;;;;;17.70;52.70;;;;;;10084121;28;814;-73
2023/02/23 23:15:00;;;;;;;;;;;17.70;52.60;;;;;;10084433;28;1902;-74
2023/02/23 23:19:55;;;;;;;;;;;17.70;52.50;;;;;;10083317;28;858;-74
2023/02/23 23:24:50;;;;;;;;;;;17.70;52.50;;;;;;10083647;28;765;-74
2023/02/23 23:29:46;;;;;;;;;;;17.70;52.50;;;;;;10084349;28;767;-84
2023/02/23 23:34:41;;;;;;;;;;;17.70;52.50;;;;;;10083867;28;1959;-78
2023/02/23 23:39:37;;;;;;;;;;;17.70;52.40;;;;;;10083818;28;848;-76
2023/02/23 23:44:32;;;;;;;;;;;17.70;52.50;;;;;;10082147;28;1216;-76
2023/02/23 23:49:28;;;;;;;;;;;17.70;52.40;;;;;;10082923;28;981;-77
2023/02/23 23:54:23;;;;;;;;;;;17.70;52.40;;;;;;10082700;28;783;-75
2023/02/23 23:59:19;;;;;;;;;;;17.70;52.30;;;;;;10082488;28;1903;-76
